Time;durP1;ratioP1;P1;durP2;ratioP2;P2;SDS_P1;SDS_P2;PMS_P1;PMS_P2;Temp;Humidity;BMP_temperature;BMP_pressure;BME280_temperature;BME280_humidity;BME280_pressure;Samples;Min_cycle;Max_cycle;Signal;HPM_P1;HPM_P2
2023/04/30 00:00:28;;;;;;;5.23;3.60;;;13.30;99.90;;;;;;5076192;28;20020;-71
2023/04/30 00:02:54;;;;;;;4.83;4.23;;;13.30;99.90;;;;;;5073496;28;20147;-70
2023/04/30 00:05:20;;;;;;;10.00;4.50;;;13.30;99.90;;;;;;5074661;28;20056;-71
2023/04/30 00:07:45;;;;;;;6.87;4.00;;;13.20;99.90;;;;;;5071671;28;20028;-70
2023/04/30 00:10:11;;;;;;;9.60;3.93;;;13.20;99.90;;;;;;5071860;28;20028;-72
2023/04/30 00:12:37;;;;;;;6.23;4.70;;;13.10;99.90;;;;;;5073473;28;20036;-72
2023/04/30 00:15:03;;;;;;;5.00;4.47;;;13.10;99.90;;;;;;5071634;28;20032;-72
2023/04/30 00:17:29;;;;;;;8.55;4.18;;;13.10;99.90;;;;;;5074119;28;20039;-70
2023/04/30 00:19:55;;;;;;;4.80;4.10;;;13.10;99.90;;;;;;5072876;28;20036;-71
2023/04/30 00:22:20;;;;;;;8.38;4.60;;;13.00;99.90;;;;;;5073795;28;20035;-71
2023/04/30 00:24:46;;;;;;;8.30;5.07;;;13.00;99.90;;;;;;5078324;28;20041;-71
2023/04/30 00:27:12;;;;;;;8.38;4.28;;;12.90;99.90;;;;;;5074367;28;20025;-70
2023/04/30 00:29:38;;;;;;;5.83;4.90;;;12.90;99.90;;;;;;5075565;28;20115;-71
2023/04/30 00:32:04;;;;;;;6.57;4.50;;;12.80;99.90;;;;;;5083288;28;20032;-71
2023/04/30 00:34:29;;;;;;;8.73;4.90;;;12.70;99.90;;;;;;5085966;28;20086;-71
2023/04/30 00:36:55;;;;;;;6.88;4.75;;;12.70;99.90;;;;;;5079850;28;20037;-72
2023/04/30 00:39:20;;;;;;;6.33;5.50;;;12.60;99.90;;;;;;5074039;28;20020;-71
2023/04/30 00:41:46;;;;;;;11.77;5.10;;;12.70;99.90;;;;;;5074108;28;20063;-72
2023/04/30 00:44:12;;;;;;;5.43;4.87;;;12.60;99.90;;;;;;5069933;28;20032;-70
2023/04/30 00:46:37;;;;;;;9.53;4.60;;;12.60;99.90;;;;;;5069459;28;20548;-71
2023/04/30 00:49:03;;;;;;;10.17;6.27;;;12.60;99.90;;;;;;5072108;28;20045;-71
2023/04/30 00:51:31;;;;;;;8.00;5.43;;;12.60;99.90;;;;;;5064778;28;20035;-70
2023/04/30 00:54:01;;;;;;;11.52;5.05;;;12.60;99.90;;;;;;5072520;28;20078;-70
2023/04/30 00:56:29;;;;;;;14.63;5.55;;;12.50;99.90;;;;;;5071216;28;20139;-70
2023/04/30 00:58:56;;;;;;;7.78;5.38;;;12.40;99.90;;;;;;5074372;28;20031;-70
2023/04/30 01:01:27;;;;;;;9.02;6.22;;;12.40;99.90;;;;;;5069855;28;20652;-72
2023/04/30 01:03:53;;;;;;;7.45;5.78;;;12.40;99.90;;;;;;5070542;28;20820;-70
2023/04/30 01:06:19;;;;;;;7.15;5.32;;;12.30;99.90;;;;;;5068987;28;20025;-70
2023/04/30 01:08:45;;;;;;;11.68;6.28;;;12.20;99.90;;;;;;5074576;28;20074;-70
2023/04/30 01:11:30;;;;;;;9.70;5.95;;;12.20;99.90;;;;;;5071293;28;20039;-70
2023/04/30 01:14:28;;;;;;;7.60;5.90;;;12.10;99.90;;;;;;5070112;28;20044;-71
2023/04/30 01:17:22;;;;;;;9.00;7.15;;;12.10;99.90;;;;;;5073206;28;20043;-70
2023/04/30 01:19:48;;;;;;;7.95;6.00;;;12.10;99.90;;;;;;5063981;28;20361;-69
2023/04/30 01:22:25;;;;;;;8.97;6.37;;;12.00;99.90;;;;;;5075569;28;20035;-70
2023/04/30 01:25:13;;;;;;;7.70;6.25;;;12.00;99.90;;;;;;5069426;28;20029;-72
2023/04/30 01:28:02;;;;;;;10.25;7.30;;;12.00;99.90;;;;;;5047503;28;20044;-70
2023/04/30 01:30:30;;;;;;;9.73;6.65;;;12.00;99.90;;;;;;5070759;28;20396;-71
2023/04/30 01:32:56;;;;;;;11.02;7.45;;;11.90;99.90;;;;;;5070709;28;20545;-72
2023/04/30 01:35:39;;;;;;;11.27;7.40;;;12.00;99.90;;;;;;5070070;28;20107;-71
2023/04/30 01:38:40;;;;;;;10.05;6.90;;;11.90;99.90;;;;;;5069497;28;20861;-70
2023/04/30 01:41:25;;;;;;;10.85;7.00;;;12.00;99.90;;;;;;5074962;28;20123;-72
2023/04/30 01:44:20;;;;;;;14.45;7.93;;;12.10;99.90;;;;;;5068945;28;20024;-70
2023/04/30 01:47:01;;;;;;;12.55;8.05;;;12.10;99.90;;;;;;5067997;28;20160;-70
2023/04/30 01:49:42;;;;;;;15.90;7.78;;;12.10;99.90;;;;;;5072385;28;20115;-71
2023/04/30 01:52:32;;;;;;;9.52;7.20;;;12.10;99.90;;;;;;5067469;28;20040;-71
2023/04/30 01:55:03;;;;;;;10.73;8.23;;;12.10;99.90;;;;;;5070396;28;20068;-70
2023/04/30 01:57:40;;;;;;;23.45;9.15;;;12.10;99.90;;;;;;5074891;28;20032;-70
2023/04/30 02:00:10;;;;;;;13.00;8.95;;;11.90;99.90;;;;;;5067775;28;20039;-70
2023/04/30 02:02:36;;;;;;;12.25;8.85;;;11.90;99.90;;;;;;5069309;28;20036;-69
2023/04/30 02:05:02;;;;;;;9.77;8.00;;;11.80;99.90;;;;;;5069699;28;20035;-71
2023/04/30 02:07:54;;;;;;;13.37;9.57;;;11.80;99.90;;;;;;5073164;28;20043;-71
2023/04/30 02:10:25;;;;;;;13.50;9.68;;;11.70;99.90;;;;;;5066349;28;20112;-71
2023/04/30 02:12:51;;;;;;;13.88;9.13;;;11.70;99.90;;;;;;5042797;28;20032;-72
2023/04/30 02:15:17;;;;;;;12.52;9.48;;;11.70;99.90;;;;;;5072640;28;20029;-71
2023/04/30 02:17:43;;;;;;;13.65;9.40;;;11.60;99.90;;;;;;5072898;28;20582;-70
2023/04/30 02:20:09;;;;;;;14.77;9.83;;;11.60;99.90;;;;;;5089457;28;20028;-69
2023/04/30 02:22:36;;;;;;;12.45;9.68;;;11.60;99.90;;;;;;5080745;28;20036;-70
2023/04/30 02:25:02;;;;;;;11.55;9.20;;;11.60;99.90;;;;;;5079601;28;20068;-70
2023/04/30 02:27:30;;;;;;;14.77;10.70;;;11.60;99.90;;;;;;5069861;28;20039;-71
2023/04/30 02:29:55;;;;;;;12.77;9.55;;;11.70;99.90;;;;;;5070130;28;20036;-71
2023/04/30 02:32:21;;;;;;;13.80;9.63;;;11.60;99.90;;;;;;5067746;28;20431;-70
2023/04/30 02:34:47;;;;;;;14.70;10.50;;;11.50;99.90;;;;;;5072081;28;20515;-70
2023/04/30 02:37:12;;;;;;;14.33;9.53;;;11.50;99.90;;;;;;5067034;28;20074;-70
2023/04/30 02:39:38;;;;;;;12.20;9.67;;;11.50;99.90;;;;;;5076955;28;20032;-70
2023/04/30 02:42:05;;;;;;;13.47;8.87;;;11.50;99.90;;;;;;5070781;28;20405;-71
2023/04/30 02:44:31;;;;;;;16.17;10.27;;;11.40;99.90;;;;;;5074252;28;20031;-70
2023/04/30 02:46:56;;;;;;;22.90;11.17;;;11.40;99.90;;;;;;5067801;28;20044;-70
2023/04/30 02:49:22;;;;;;;18.87;11.17;;;11.30;99.90;;;;;;5074702;28;20480;-71
2023/04/30 02:51:47;;;;;;;14.77;10.43;;;11.30;99.90;;;;;;5067337;28;20029;-71
2023/04/30 02:54:13;;;;;;;17.27;11.17;;;11.30;99.90;;;;;;5068733;28;20388;-70
2023/04/30 02:56:39;;;;;;;20.33;11.90;;;11.30;99.90;;;;;;5071870;28;20080;-70
2023/04/30 02:59:05;;;;;;;15.43;10.47;;;11.30;99.90;;;;;;5066741;28;20039;-70
2023/04/30 03:01:31;;;;;;;12.82;9.55;;;11.20;99.90;;;;;;5072223;28;20030;-70
2023/04/30 03:03:58;;;;;;;16.42;11.27;;;11.20;99.90;;;;;;5073864;28;20774;-70
2023/04/30 03:06:23;;;;;;;15.65;11.05;;;11.20;99.90;;;;;;5069374;28;20036;-70
2023/04/30 03:08:50;;;;;;;15.73;11.93;;;11.20;99.90;;;;;;5070101;28;20040;-70
2023/04/30 03:11:16;;;;;;;15.40;11.50;;;11.20;99.90;;;;;;5067893;28;20086;-70
2023/04/30 03:13:42;;;;;;;19.43;10.53;;;11.20;99.90;;;;;;5070029;28;20052;-71
2023/04/30 03:16:08;;;;;;;21.30;11.27;;;11.30;99.90;;;;;;5069017;28;20107;-71
2023/04/30 03:18:33;;;;;;;15.60;11.20;;;11.30;99.90;;;;;;5056245;28;20135;-71
2023/04/30 03:20:59;;;;;;;16.70;11.40;;;11.40;99.90;;;;;;5068368;28;20055;-71
2023/04/30 03:23:28;;;;;;;20.53;10.70;;;11.40;99.90;;;;;;5067575;28;20032;-71
2023/04/30 03:25:53;;;;;;;20.02;11.15;;;11.50;99.90;;;;;;5068490;28;20111;-71
2023/04/30 03:28:20;;;;;;;16.57;11.60;;;11.40;99.90;;;;;;5068312;28;20509;-70
2023/04/30 03:30:46;;;;;;;23.33;10.95;;;11.30;99.90;;;;;;5069782;28;20021;-69
2023/04/30 03:33:11;;;;;;;16.93;11.13;;;11.30;99.90;;;;;;5068475;28;20037;-70
2023/04/30 03:35:37;;;;;;;16.23;12.20;;;11.30;99.90;;;;;;5069360;28;20503;-70
2023/04/30 03:38:03;;;;;;;16.70;11.53;;;11.30;99.90;;;;;;5067040;28;20126;-70
2023/04/30 03:40:28;;;;;;;21.17;11.37;;;11.40;99.90;;;;;;5069832;28;20032;-71
2023/04/30 03:42:54;;;;;;;18.93;11.50;;;11.50;99.90;;;;;;5072828;28;20064;-71
2023/04/30 03:45:20;;;;;;;16.63;11.90;;;11.50;99.90;;;;;;5071144;28;20039;-71
2023/04/30 03:47:46;;;;;;;15.90;11.80;;;11.50;99.90;;;;;;5069854;28;20303;-71
2023/04/30 03:50:12;;;;;;;22.20;12.88;;;11.60;99.90;;;;;;5070104;28;20480;-70
2023/04/30 03:52:38;;;;;;;21.27;12.40;;;11.40;99.90;;;;;;5066795;28;20492;-70
2023/04/30 03:55:04;;;;;;;20.97;12.20;;;11.50;99.90;;;;;;5066747;28;20081;-71
2023/04/30 03:57:30;;;;;;;;;;;11.40;99.90;;;;;;5067961;28;20039;-72
2023/04/30 03:59:56;;;;;;;20.52;12.20;;;11.50;99.90;;;;;;5067731;28;19915;-72
2023/04/30 04:02:22;;;;;;;16.10;11.67;;;11.60;99.90;;;;;;5051292;28;20041;-71
2023/04/30 04:04:48;;;;;;;20.05;12.43;;;11.60;99.90;;;;;;5068907;28;20035;-70
2023/04/30 04:07:14;;;;;;;;;;;11.50;99.90;;;;;;5065662;28;20047;-70
2023/04/30 04:09:40;;;;;;;17.50;11.93;;;11.60;99.90;;;;;;5078137;28;20431;-70
2023/04/30 04:12:06;;;;;;;21.13;13.85;;;11.50;99.90;;;;;;5069005;28;20056;-71
2023/04/30 04:14:32;;;;;;;16.90;12.07;;;11.30;99.90;;;;;;5066942;28;20515;-71
2023/04/30 04:16:58;;;;;;;20.27;13.20;;;11.40;99.90;;;;;;5042566;28;20573;-71
2023/04/30 04:19:24;;;;;;;;;;;11.40;99.90;;;;;;5068187;28;20293;-70
2023/04/30 04:21:50;;;;;;;19.85;11.98;;;11.50;99.90;;;;;;5078862;28;19912;-71
2023/04/30 04:24:16;;;;;;;24.03;13.33;;;11.50;99.90;;;;;;5066251;28;20825;-71
2023/04/30 04:26:41;;;;;;;19.17;12.77;;;11.50;99.90;;;;;;5070738;28;20036;-71
2023/04/30 04:29:08;;;;;;;19.00;13.17;;;11.50;99.90;;;;;;5071822;28;20309;-70
2023/04/30 04:31:34;;;;;;;19.63;12.75;;;11.50;99.90;;;;;;5069675;28;20027;-70
2023/04/30 04:34:01;;;;;;;21.13;13.43;;;11.40;99.90;;;;;;5054710;28;20126;-71
2023/04/30 04:36:27;;;;;;;21.00;12.70;;;11.30;99.90;;;;;;5071995;28;20777;-70
2023/04/30 04:39:00;;;;;;;19.45;13.00;;;11.50;99.90;;;;;;5074285;28;20554;-71
2023/04/30 04:41:26;;;;;;;19.52;12.15;;;11.60;99.90;;;;;;5072571;28;20032;-71
2023/04/30 04:43:52;;;;;;;19.95;13.57;;;11.70;99.90;;;;;;5076025;28;20025;-70
2023/04/30 04:46:18;;;;;;;22.90;12.40;;;11.60;99.90;;;;;;5070495;28;20556;-70
2023/04/30 04:48:43;;;;;;;23.27;13.67;;;11.60;99.90;;;;;;5072018;28;20121;-70
2023/04/30 04:51:09;;;;;;;20.30;12.43;;;11.50;99.90;;;;;;5074867;28;20358;-71
2023/04/30 04:53:35;;;;;;;24.65;13.15;;;11.60;99.90;;;;;;5071058;28;20024;-71
2023/04/30 04:56:01;;;;;;;19.85;12.63;;;11.60;99.90;;;;;;5073052;28;20420;-71
2023/04/30 04:58:27;;;;;;;19.80;13.23;;;11.50;99.90;;;;;;5072117;28;20533;-70
2023/04/30 05:00:53;;;;;;;20.05;13.48;;;11.60;99.90;;;;;;5066039;28;20035;-71
2023/04/30 05:03:19;;;;;;;16.95;12.27;;;11.60;99.90;;;;;;5068247;28;20111;-70
2023/04/30 05:05:45;;;;;;;;;;;11.60;99.90;;;;;;5069434;28;20016;-70
2023/04/30 05:08:11;;;;;;;23.58;13.32;;;11.60;99.90;;;;;;5071556;28;20307;-70
2023/04/30 05:10:36;;;;;;;19.73;12.30;;;11.60;99.90;;;;;;5042885;28;20032;-70
2023/04/30 05:13:02;;;;;;;20.53;12.87;;;11.60;99.90;;;;;;5071535;28;20491;-70
2023/04/30 05:15:28;;;;;;;19.80;13.13;;;11.60;99.90;;;;;;5068796;28;20033;-70
2023/04/30 05:17:54;;;;;;;22.07;12.80;;;11.70;99.90;;;;;;5068155;28;20040;-71
2023/04/30 05:20:19;;;;;;;20.10;13.13;;;11.80;99.90;;;;;;5068643;28;20020;-70
2023/04/30 05:22:45;;;;;;;21.60;14.00;;;11.80;99.90;;;;;;5073169;28;20031;-70
2023/04/30 05:25:10;;;;;;;25.97;14.20;;;11.80;99.90;;;;;;5071843;28;20110;-71
2023/04/30 05:27:36;;;;;;;19.00;12.53;;;11.80;99.90;;;;;;5076905;28;20032;-71
2023/04/30 05:30:02;;;;;;;18.87;13.03;;;11.70;99.90;;;;;;5070771;28;20082;-71
2023/04/30 05:32:28;;;;;;;19.08;13.30;;;11.60;99.90;;;;;;5067814;28;20025;-71
2023/04/30 05:34:54;;;;;;;24.05;13.65;;;11.60;99.90;;;;;;5077862;28;20043;-70
2023/04/30 05:37:21;;;;;;;17.35;12.45;;;11.60;99.90;;;;;;5068887;28;20521;-69
2023/04/30 05:39:47;;;;;;;19.80;13.13;;;11.70;99.90;;;;;;5068759;28;20127;-69
2023/04/30 05:42:13;;;;;;;18.95;13.15;;;11.80;99.90;;;;;;5070568;28;20476;-69
2023/04/30 05:44:40;;;;;;;21.33;13.93;;;11.80;99.90;;;;;;5072080;28;20041;-70
2023/04/30 05:47:05;;;;;;;21.17;13.65;;;11.80;99.90;;;;;;5071200;28;20067;-70
2023/04/30 05:49:31;;;;;;;23.83;14.60;;;11.70;99.90;;;;;;5071188;28;20043;-70
2023/04/30 05:51:57;;;;;;;20.87;13.73;;;11.60;99.90;;;;;;5068795;28;20532;-71
2023/04/30 05:54:22;;;;;;;19.60;13.27;;;11.70;99.90;;;;;;5077719;28;20024;-71
2023/04/30 05:56:48;;;;;;;19.50;13.83;;;11.70;99.90;;;;;;5089270;28;20035;-71
2023/04/30 05:59:13;;;;;;;22.50;14.80;;;11.60;99.90;;;;;;5081310;28;20048;-72
2023/04/30 06:01:39;;;;;;;24.17;13.77;;;11.60;99.90;;;;;;5069625;28;20036;-71
2023/04/30 06:04:04;;;;;;;25.07;15.73;;;11.70;99.90;;;;;;5070163;28;20056;-72
2023/04/30 06:06:33;;;;;;;22.27;14.13;;;11.80;99.90;;;;;;5064664;28;20033;-72
2023/04/30 06:08:58;;;;;;;21.38;13.43;;;11.80;99.90;;;;;;5074413;28;20040;-71
2023/04/30 06:11:27;;;;;;;21.03;13.47;;;11.90;99.90;;;;;;5055877;28;20515;-71
2023/04/30 06:13:52;;;;;;;21.55;14.32;;;12.00;99.90;;;;;;5067945;28;20099;-70
2023/04/30 06:16:18;;;;;;;20.53;14.17;;;11.90;99.90;;;;;;5065335;28;20096;-70
2023/04/30 06:18:44;;;;;;;20.17;13.70;;;12.00;99.90;;;;;;5069835;28;20032;-70
2023/04/30 06:21:10;;;;;;;22.80;13.35;;;12.00;99.90;;;;;;5068807;28;20037;-69
2023/04/30 06:23:36;;;;;;;22.07;14.33;;;11.90;99.90;;;;;;5066749;28;20232;-70
2023/04/30 06:26:02;;;;;;;22.88;12.88;;;11.90;99.90;;;;;;5067718;28;20309;-70
2023/04/30 06:28:28;;;;;;;21.25;12.65;;;12.00;99.90;;;;;;5073429;28;20607;-70
2023/04/30 06:30:54;;;;;;;25.02;13.68;;;12.10;99.90;;;;;;5068423;28;20094;-70
2023/04/30 06:33:20;;;;;;;26.63;15.47;;;12.20;99.90;;;;;;5068645;28;20032;-71
2023/04/30 06:35:46;;;;;;;26.90;14.95;;;12.20;99.90;;;;;;5070872;28;20540;-70
2023/04/30 06:38:12;;;;;;;26.50;14.32;;;12.20;99.90;;;;;;5070030;28;20036;-71
2023/04/30 06:40:38;;;;;;;17.80;12.68;;;12.20;99.90;;;;;;5070520;28;20050;-71
2023/04/30 06:43:04;;;;;;;23.77;13.70;;;12.20;99.90;;;;;;5051811;28;20449;-70
2023/04/30 06:45:29;;;;;;;23.63;14.23;;;12.30;99.90;;;;;;5068514;28;20039;-70
2023/04/30 06:47:55;;;;;;;23.83;13.60;;;12.40;99.90;;;;;;5071168;28;20382;-71
2023/04/30 06:50:20;;;;;;;21.47;13.27;;;12.40;99.90;;;;;;5062757;28;20333;-71
2023/04/30 06:52:46;;;;;;;22.07;12.40;;;12.40;99.90;;;;;;5061070;28;20063;-71
2023/04/30 06:55:12;;;;;;;27.25;12.85;;;12.50;99.90;;;;;;5067936;28;20039;-72
2023/04/30 06:57:38;;;;;;;20.63;13.00;;;12.70;99.90;;;;;;5064268;28;20037;-72
2023/04/30 07:00:05;;;;;;;18.75;13.07;;;12.80;99.90;;;;;;5072084;28;20032;-71
2023/04/30 07:02:31;;;;;;;23.35;12.95;;;12.80;99.90;;;;;;5068155;28;20032;-71
2023/04/30 07:04:57;;;;;;;20.58;13.35;;;12.80;99.90;;;;;;5071568;28;20050;-72
2023/04/30 07:07:23;;;;;;;17.97;12.57;;;12.80;99.90;;;;;;5063968;28;20050;-71
2023/04/30 07:09:49;;;;;;;21.57;13.07;;;12.80;99.90;;;;;;5066854;28;20330;-71
2023/04/30 07:12:15;;;;;;;20.38;12.20;;;12.80;99.90;;;;;;5068944;28;20027;-71
2023/04/30 07:14:41;;;;;;;22.37;13.47;;;12.90;99.90;;;;;;5072012;28;20028;-71
2023/04/30 07:17:07;;;;;;;21.13;13.30;;;12.90;99.90;;;;;;5067185;28;20285;-71
2023/04/30 07:19:32;;;;;;;19.33;12.67;;;13.00;99.90;;;;;;5064365;28;20477;-71
2023/04/30 07:21:58;;;;;;;19.47;12.03;;;13.10;99.90;;;;;;5064857;28;20031;-70
2023/04/30 07:24:24;;;;;;;19.77;12.17;;;12.90;99.90;;;;;;5066765;28;20368;-71
2023/04/30 07:26:50;;;;;;;27.23;14.10;;;13.00;99.90;;;;;;5064904;28;20029;-72
2023/04/30 07:29:17;;;;;;;21.57;13.07;;;12.90;99.90;;;;;;5067376;28;20048;-71
2023/04/30 07:31:42;;;;;;;22.05;12.90;;;12.90;99.90;;;;;;5066797;28;20344;-71
2023/04/30 07:34:08;;;;;;;20.67;12.90;;;13.00;99.90;;;;;;5070257;28;20034;-71
2023/04/30 07:36:34;;;;;;;22.67;13.25;;;13.10;99.90;;;;;;5066045;28;20857;-70
2023/04/30 07:38:59;;;;;;;19.03;13.23;;;13.10;99.90;;;;;;5066120;28;20032;-71
2023/04/30 07:41:25;;;;;;;23.92;12.40;;;13.30;99.90;;;;;;5067161;28;20032;-69
2023/04/30 07:43:53;;;;;;;20.50;12.98;;;13.50;99.90;;;;;;5085944;28;20032;-68
2023/04/30 07:46:19;;;;;;;19.80;11.75;;;13.50;99.90;;;;;;5073606;28;20033;-70
2023/04/30 07:48:45;;;;;;;20.13;13.75;;;13.80;99.90;;;;;;5069499;28;20448;-71
2023/04/30 07:51:11;;;;;;;21.73;13.07;;;14.00;99.90;;;;;;5070038;28;20048;-70
2023/04/30 07:53:36;;;;;;;18.93;12.83;;;14.00;99.90;;;;;;5066634;28;20043;-70
2023/04/30 07:56:03;;;;;;;23.30;13.47;;;14.10;99.90;;;;;;5075918;28;20435;-71
2023/04/30 07:58:29;;;;;;;;;;;14.30;99.90;;;;;;5070045;28;20070;-70
2023/04/30 08:00:54;;;;;;;20.50;12.35;;;14.50;99.90;;;;;;5068952;28;19912;-71
2023/04/30 08:03:20;;;;;;;19.50;12.45;;;14.40;99.90;;;;;;5070340;28;20043;-72
2023/04/30 08:05:47;;;;;;;18.87;12.03;;;14.60;99.90;;;;;;5071741;28;20495;-72
2023/04/30 08:08:12;;;;;;;20.70;12.60;;;14.80;99.90;;;;;;5076078;28;20032;-71
2023/04/30 08:10:38;;;;;;;19.07;11.93;;;14.90;99.90;;;;;;5054299;28;20051;-73
2023/04/30 08:13:04;;;;;;;19.00;11.57;;;15.00;99.90;;;;;;5075046;28;20060;-76
2023/04/30 08:15:32;;;;;;;21.58;12.48;;;14.90;99.90;;;;;;5071309;28;20768;-73
2023/04/30 08:17:57;;;;;;;18.40;12.00;;;14.60;99.90;;;;;;5071357;28;20044;-75
2023/04/30 08:20:23;;;;;;;18.50;12.33;;;14.60;99.90;;;;;;5069807;28;20510;-73
2023/04/30 08:22:50;;;;;;;16.80;10.03;;;14.40;99.90;;;;;;5074657;28;20048;-75
2023/04/30 08:25:16;;;;;;;17.20;10.80;;;14.40;99.90;;;;;;5072354;28;20040;-74
2023/04/30 08:27:42;;;;;;;18.80;12.18;;;14.40;99.90;;;;;;5070670;28;20027;-74
2023/04/30 08:30:08;;;;;;;19.50;12.17;;;14.20;99.90;;;;;;5067611;28;20055;-76
2023/04/30 08:32:37;;;;;;;17.17;12.13;;;14.10;99.90;;;;;;5054250;28;20118;-72
2023/04/30 08:35:04;;;;;;;18.58;12.23;;;14.10;99.90;;;;;;5071180;28;20043;-73
2023/04/30 08:37:30;;;;;;;18.33;12.15;;;14.30;99.90;;;;;;5074175;28;20496;-72
2023/04/30 08:39:55;;;;;;;24.23;13.00;;;14.40;99.90;;;;;;5070670;28;20035;-72
2023/04/30 08:42:25;;;;;;;17.87;11.77;;;14.60;99.90;;;;;;5074305;28;20028;-73
2023/04/30 08:44:50;;;;;;;21.75;12.18;;;14.50;99.90;;;;;;5070325;28;20576;-73
2023/04/30 08:47:17;;;;;;;19.77;12.00;;;14.50;99.90;;;;;;5070003;28;20040;-74
2023/04/30 08:49:44;;;;;;;18.88;12.77;;;14.80;99.90;;;;;;5071924;28;20123;-74
2023/04/30 08:52:10;;;;;;;18.40;12.68;;;14.80;99.90;;;;;;5076075;28;20062;-71
2023/04/30 08:54:36;;;;;;;17.30;12.63;;;14.50;99.90;;;;;;5069479;28;20044;-73
2023/04/30 08:57:03;;;;;;;17.58;11.88;;;14.60;99.90;;;;;;5073000;28;20696;-72
2023/04/30 08:59:29;;;;;;;17.77;12.55;;;14.50;99.90;;;;;;5070941;28;20033;-74
2023/04/30 09:01:55;;;;;;;27.58;15.27;;;14.50;99.90;;;;;;5071497;28;20032;-74
2023/04/30 09:04:21;;;;;;;21.95;14.02;;;14.40;99.90;;;;;;5071505;28;20032;-73
2023/04/30 09:06:46;;;;;;;20.63;13.23;;;14.20;99.90;;;;;;5068755;28;20467;-72
2023/04/30 09:09:14;;;;;;;43.00;23.73;;;14.40;99.90;;;;;;5070354;28;20643;-73
2023/04/30 09:11:40;;;;;;;19.73;13.48;;;14.30;99.90;;;;;;5068782;28;20562;-73
2023/04/30 09:14:07;;;;;;;23.90;14.40;;;14.30;99.90;;;;;;5072959;28;20046;-73
2023/04/30 09:16:59;;;;;;;19.75;12.05;;;14.30;99.90;;;;;;5062490;28;20105;-73
2023/04/30 09:19:26;;;;;;;19.75;12.10;;;14.50;99.90;;;;;;5063996;28;20068;-73
2023/04/30 09:21:52;;;;;;;17.92;11.55;;;14.70;99.90;;;;;;5078508;28;20028;-74
2023/04/30 09:24:17;;;;;;;16.27;12.03;;;14.60;99.90;;;;;;5070220;28;20032;-73
2023/04/30 09:26:49;;;;;;;15.50;12.15;;;14.50;99.90;;;;;;5072446;28;20104;-72
2023/04/30 09:29:37;;;;;;;19.70;12.75;;;14.60;99.90;;;;;;5035221;28;20049;-72
2023/04/30 09:32:08;;;;;;;17.75;11.63;;;14.40;99.90;;;;;;5032993;28;20034;-72
2023/04/30 09:34:34;;;;;;;18.67;11.85;;;14.70;99.90;;;;;;5029775;28;20099;-73
2023/04/30 09:37:00;;;;;;;;;;;14.80;99.90;;;;;;5011691;28;20404;-72
2023/04/30 09:39:25;;;;;;;18.80;13.02;;;15.10;99.90;;;;;;5024204;28;19919;-73
2023/04/30 09:41:51;;;;;;;16.50;11.70;;;15.10;99.90;;;;;;5024941;28;20033;-71
2023/04/30 09:44:31;;;;;;;19.13;12.73;;;15.40;99.90;;;;;;5018117;28;20492;-72
2023/04/30 09:46:57;;;;;;;16.75;11.75;;;15.50;99.90;;;;;;5018281;28;20501;-72
2023/04/30 09:49:24;;;;;;;16.00;10.73;;;15.60;99.90;;;;;;5023596;28;20105;-74
2023/04/30 09:51:58;;;;;;;18.10;12.18;;;15.80;99.90;;;;;;5017990;28;20077;-75
2023/04/30 09:54:29;;;;;;;17.40;12.98;;;15.80;99.90;;;;;;5023718;28;20449;-74
2023/04/30 09:56:57;;;;;;;17.10;11.40;;;15.70;99.90;;;;;;5017933;28;20488;-76
2023/04/30 09:59:34;;;;;;;15.93;11.00;;;15.60;99.90;;;;;;5023912;28;20048;-74
2023/04/30 10:02:02;;;;;;;18.20;11.43;;;15.90;99.90;;;;;;5066152;28;20067;-75
2023/04/30 10:04:32;;;;;;;18.00;11.82;;;15.80;99.90;;;;;;5073690;28;20025;-75
2023/04/30 10:07:00;;;;;;;17.55;11.93;;;16.00;99.90;;;;;;5066532;28;20040;-74
2023/04/30 10:09:33;;;;;;;15.88;11.13;;;15.90;99.90;;;;;;5067002;28;20487;-75
2023/04/30 10:12:00;;;;;;;16.75;11.75;;;16.30;99.90;;;;;;5067624;28;20028;-76
2023/04/30 10:14:29;;;;;;;16.70;11.95;;;16.60;99.90;;;;;;5065980;28;20959;-74
2023/04/30 10:17:21;;;;;;;18.95;11.50;;;16.60;99.40;;;;;;5067878;28;20115;-74
2023/04/30 10:19:51;;;;;;;16.50;10.65;;;16.60;99.90;;;;;;5071259;28;20047;-74
2023/04/30 10:22:18;;;;;;;18.60;11.40;;;16.70;99.60;;;;;;5069550;28;20193;-74
2023/04/30 10:24:45;;;;;;;16.77;11.15;;;16.90;99.20;;;;;;5067163;28;20510;-74
2023/04/30 10:27:12;;;;;;;16.60;11.40;;;17.30;99.30;;;;;;5069568;28;20131;-74
2023/04/30 10:29:37;;;;;;;15.57;10.52;;;17.20;98.10;;;;;;5069075;28;20044;-73
2023/04/30 10:32:05;;;;;;;13.60;10.52;;;17.30;99.00;;;;;;5070071;28;20102;-73
2023/04/30 10:35:17;;;;;;;16.02;10.57;;;16.90;97.90;;;;;;5072503;28;20040;-74
2023/04/30 10:37:48;;;;;;;13.82;10.13;;;17.00;98.20;;;;;;5043479;28;20155;-73
2023/04/30 10:40:14;;;;;;;14.73;10.85;;;16.90;99.40;;;;;;5057642;28;20089;-74
2023/04/30 10:42:48;;;;;;;14.73;10.90;;;16.90;99.50;;;;;;5070311;28;20500;-74
2023/04/30 10:45:19;;;;;;;14.80;10.55;;;16.70;99.20;;;;;;5072106;28;20301;-74
2023/04/30 10:47:45;;;;;;;15.25;11.50;;;16.70;98.00;;;;;;5069630;28;20074;-74
2023/04/30 10:50:11;;;;;;;16.77;11.68;;;16.60;98.80;;;;;;5067821;28;20381;-75
2023/04/30 10:52:38;;;;;;;14.38;10.82;;;16.40;99.00;;;;;;5066495;28;20029;-75
2023/04/30 10:55:06;;;;;;;14.80;11.02;;;16.20;99.50;;;;;;5064718;28;20062;-75
2023/04/30 10:57:43;;;;;;;17.40;12.13;;;16.20;99.90;;;;;;5062413;28;20033;-76
2023/04/30 11:00:15;;;;;;;13.50;10.43;;;16.10;99.80;;;;;;5066417;28;20503;-76
2023/04/30 11:02:42;;;;;;;14.90;10.57;;;16.40;99.90;;;;;;5067493;28;20032;-74
2023/04/30 11:05:18;;;;;;;15.55;10.55;;;16.40;99.90;;;;;;5065159;28;20024;-75
2023/04/30 11:07:51;;;;;;;17.65;11.20;;;16.60;99.40;;;;;;5065260;28;20423;-75
2023/04/30 11:10:21;;;;;;;15.00;10.80;;;17.10;99.50;;;;;;5044976;28;20046;-73
2023/04/30 11:12:48;;;;;;;15.35;10.80;;;17.20;98.30;;;;;;5065283;28;20028;-73
2023/04/30 11:15:18;;;;;;;17.00;11.45;;;17.20;98.40;;;;;;5083598;28;20035;-75
2023/04/30 11:17:45;;;;;;;16.48;11.18;;;17.20;98.50;;;;;;5085582;28;20063;-74
2023/04/30 11:20:22;;;;;;;14.57;10.85;;;17.40;99.60;;;;;;5078934;28;20071;-74
2023/04/30 11:22:47;;;;;;;15.00;10.45;;;17.90;97.40;;;;;;5050411;28;20404;-74
2023/04/30 11:25:23;;;;;;;14.20;10.57;;;18.50;97.20;;;;;;5051772;28;20049;-75
2023/04/30 11:27:49;;;;;;;15.30;10.52;;;18.20;96.00;;;;;;5066896;28;20088;-72
2023/04/30 11:30:17;;;;;;;14.35;11.43;;;17.90;96.50;;;;;;5050789;28;20024;-76
2023/04/30 11:32:48;;;;;;;13.23;10.07;;;17.80;95.80;;;;;;5067868;28;20032;-73
2023/04/30 11:35:17;;;;;;;15.73;11.00;;;17.70;97.50;;;;;;5063678;28;20056;-73
2023/04/30 11:37:44;;;;;;;14.40;10.50;;;17.20;96.70;;;;;;5064558;28;20020;-74
2023/04/30 11:40:11;;;;;;;17.83;10.77;;;17.30;97.10;;;;;;5063300;28;20369;-73
2023/04/30 11:42:40;;;;;;;12.02;9.02;;;17.60;98.00;;;;;;5064718;28;20496;-75
2023/04/30 11:45:11;;;;;;;16.30;10.30;;;18.20;96.80;;;;;;5067329;28;20028;-72
2023/04/30 11:47:41;;;;;;;13.68;9.82;;;18.40;96.30;;;;;;5064439;28;20032;-73
2023/04/30 11:50:09;;;;;;;15.57;10.40;;;18.50;95.40;;;;;;5067775;28;20049;-74
2023/04/30 11:52:35;;;;;;;10.77;8.80;;;18.70;96.10;;;;;;5050415;28;20028;-75
2023/04/30 11:55:05;;;;;;;14.80;10.75;;;18.60;95.60;;;;;;5067258;28;20086;-74
2023/04/30 11:57:39;;;;;;;14.98;10.05;;;18.50;96.80;;;;;;5068713;28;20107;-74
2023/04/30 12:00:13;;;;;;;13.13;9.80;;;18.40;95.90;;;;;;5064308;28;20036;-75
2023/04/30 12:02:40;;;;;;;14.20;10.20;;;18.70;97.30;;;;;;5061388;28;20025;-73
2023/04/30 12:05:20;;;;;;;13.05;10.32;;;18.60;95.00;;;;;;5069691;28;20036;-73
2023/04/30 12:07:47;;;;;;;15.35;9.68;;;18.70;96.10;;;;;;5066951;28;20393;-74
2023/04/30 12:10:13;;;;;;;17.00;10.57;;;18.40;95.40;;;;;;5065812;28;20099;-74
2023/04/30 12:12:39;;;;;;;15.70;10.43;;;18.40;94.80;;;;;;5067720;28;20158;-73
2023/04/30 12:15:25;;;;;;;12.80;9.85;;;17.90;95.40;;;;;;5066382;28;20099;-74
2023/04/30 12:17:53;;;;;;;14.77;10.20;;;18.20;96.70;;;;;;5065748;28;20040;-73
2023/04/30 12:20:20;;;;;;;14.85;10.43;;;18.10;96.30;;;;;;5065448;28;20062;-72
2023/04/30 12:22:46;;;;;;;12.48;9.70;;;18.40;97.00;;;;;;5066310;28;20056;-73
2023/04/30 12:25:17;;;;;;;11.55;9.90;;;18.40;95.80;;;;;;5061274;28;20080;-74
2023/04/30 12:27:48;;;;;;;11.73;8.98;;;18.80;94.90;;;;;;5067791;28;20028;-73
2023/04/30 12:30:14;;;;;;;13.85;9.57;;;19.00;94.20;;;;;;5068496;28;20036;-73
2023/04/30 12:32:42;;;;;;;12.93;9.60;;;18.90;93.80;;;;;;5065355;28;20497;-72
2023/04/30 12:35:16;;;;;;;11.77;9.48;;;18.80;94.10;;;;;;5069314;28;20094;-73
2023/04/30 12:37:47;;;;;;;14.02;9.25;;;18.90;93.90;;;;;;5070950;28;20388;-73